Time;durP1;ratioP1;P1;durP2;ratioP2;P2;SDS_P1;SDS_P2;PMS_P1;PMS_P2;Temp;Humidity;BMP_temperature;BMP_pressure;BME280_temperature;BME280_humidity;BME280_pressure;Samples;Min_cycle;Max_cycle;Signal;HPM_P1;HPM_P2
2022/12/29 04:01:25;;;;;;;;;;;12.00;99.90;;;;;;5788476;22;19925;-68
2022/12/29 04:03:53;;;;;;;;;;;12.00;99.90;;;;;;4994607;28;20036;-68
2022/12/29 04:06:20;;;;;;;;;;;12.00;99.90;;;;;;4994681;28;20319;-68
2022/12/29 04:08:55;;;;;;;;;;;12.00;99.90;;;;;;4998528;28;19925;-67
2022/12/29 04:11:22;;;;;;;;;;;12.00;99.90;;;;;;4998904;28;19925;-68
2022/12/29 04:13:49;;;;;;;;;;;12.00;99.90;;;;;;4994336;28;19934;-68
2022/12/29 04:16:19;;;;;;;;;;;12.00;99.90;;;;;;4999591;28;19929;-68
2022/12/29 04:18:48;;;;;;;;;;;12.20;99.90;;;;;;4995012;28;19929;-68
2022/12/29 04:21:14;;;;;;;;;;;12.30;99.90;;;;;;4998117;28;19925;-68
2022/12/29 04:23:43;;;;;;;;;;;12.30;99.90;;;;;;4999313;28;20312;-68
2022/12/29 04:26:11;;;;;;;;;;;12.40;99.90;;;;;;5002777;28;19925;-68
2022/12/29 04:28:55;;;;;;;;;;;12.40;99.90;;;;;;5003407;28;19976;-68
2022/12/29 04:31:45;;;;;;;;;;;12.40;99.90;;;;;;5011196;28;20505;-68
2022/12/29 04:34:13;;;;;;;;;;;12.40;99.90;;;;;;5001958;28;20400;-68
2022/12/29 04:36:40;;;;;;;;;;;12.30;99.90;;;;;;5007893;28;19925;-68
2022/12/29 04:39:08;;;;;;;;;;;12.30;99.90;;;;;;4995742;28;19976;-68
2022/12/29 04:41:35;;;;;;;;;;;12.20;99.90;;;;;;4998608;28;19925;-68
2022/12/29 04:44:03;;;;;;;;;;;12.20;99.90;;;;;;5007098;28;20346;-68
2022/12/29 04:46:29;;;;;;;;;;;12.20;99.90;;;;;;5012344;28;19972;-68
2022/12/29 04:49:08;;;;;;;;;;;12.20;99.90;;;;;;5007810;28;19932;-68
2022/12/29 04:51:49;;;;;;;;;;;12.10;99.90;;;;;;4994376;28;20417;-68
2022/12/29 04:54:17;;;;;;;;;;;12.20;99.90;;;;;;4999472;28;19930;-68
2022/12/29 04:56:48;;;;;;;;;;;12.30;99.90;;;;;;5000790;28;19979;-68
2022/12/29 04:59:16;;;;;;;;;;;12.20;99.90;;;;;;4997984;28;19932;-68
2022/12/29 05:01:46;;;;;;;;;;;12.20;99.90;;;;;;5006779;28;20332;-67
2022/12/29 05:04:13;;;;;;;;;;;12.30;99.90;;;;;;5012548;28;20015;-67
2022/12/29 05:06:42;;;;;;;;;;;12.30;99.90;;;;;;4993184;28;19965;-67
2022/12/29 05:09:11;;;;;;;;;;;12.20;99.90;;;;;;5007594;28;19937;-68
2022/12/29 05:11:38;;;;;;;;;;;12.10;99.90;;;;;;5000693;28;19933;-67
2022/12/29 05:14:05;;;;;;;;;;;12.20;99.90;;;;;;5005242;28;19926;-67
2022/12/29 05:16:33;;;;;;;;;;;12.20;99.90;;;;;;4998004;28;19925;-67
2022/12/29 05:19:00;;;;;;;;;;;12.20;99.90;;;;;;5008138;28;19932;-67
2022/12/29 05:21:27;;;;;;;;;;;12.20;99.90;;;;;;5003200;28;19934;-67
2022/12/29 05:23:54;;;;;;;;;;;12.10;99.90;;;;;;5009447;28;19926;-67
2022/12/29 05:26:23;;;;;;;;;;;12.10;99.90;;;;;;4998143;28;19936;-67
2022/12/29 05:29:07;;;;;;;;;;;12.00;99.90;;;;;;4998202;28;19925;-68
2022/12/29 05:31:35;;;;;;;;;;;12.00;99.90;;;;;;4997334;28;19933;-68
2022/12/29 05:34:02;;;;;;;;;;;12.00;99.90;;;;;;4998253;28;19925;-67
2022/12/29 05:36:29;;;;;;;;;;;11.90;99.90;;;;;;4998314;28;20405;-68
2022/12/29 05:38:59;;;;;;;;;;;11.80;99.90;;;;;;5007820;28;19933;-67
2022/12/29 05:41:28;;;;;;;;;;;11.80;99.90;;;;;;5004275;28;19926;-67
2022/12/29 05:44:00;;;;;;;;;;;11.70;99.90;;;;;;5014988;28;19929;-67
2022/12/29 05:46:34;;;;;;;;;;;11.80;99.90;;;;;;5002022;28;19926;-67
2022/12/29 05:49:09;;;;;;;;;;;11.80;99.90;;;;;;4999346;28;19991;-68
2022/12/29 05:51:55;;;;;;;;;;;11.70;99.90;;;;;;5014497;28;20011;-67
2022/12/29 05:54:22;;;;;;;;;;;11.70;99.90;;;;;;5010710;28;19925;-67
2022/12/29 05:56:51;;;;;;;;;;;11.70;99.90;;;;;;5001374;28;19925;-68
2022/12/29 05:59:18;;;;;;;;;;;11.70;99.90;;;;;;4998153;28;19929;-68
2022/12/29 06:01:45;;;;;;;;;;;11.80;99.90;;;;;;4994018;28;20308;-68
2022/12/29 06:04:12;;;;;;;;;;;11.80;99.90;;;;;;4995097;28;19925;-68
2022/12/29 06:06:40;;;;;;;;;;;11.80;99.90;;;;;;5003116;28;20342;-66
2022/12/29 06:09:11;;;;;;;;;;;11.70;99.90;;;;;;4996004;28;20021;-68
2022/12/29 06:11:38;;;;;;;;;;;11.70;99.90;;;;;;5003407;28;19961;-68
2022/12/29 06:14:06;;;;;;;;;;;11.70;99.90;;;;;;4996708;28;19925;-68
2022/12/29 06:16:34;;;;;;;;;;;11.70;99.90;;;;;;5001652;28;19925;-68
2022/12/29 06:19:03;;;;;;;;;;;11.70;99.90;;;;;;4997862;28;19975;-68
2022/12/29 06:21:31;;;;;;;;;;;11.60;99.90;;;;;;5011395;28;20458;-69
2022/12/29 06:24:00;;;;;;;;;;;11.60;99.90;;;;;;5005830;28;19925;-68
2022/12/29 06:26:27;;;;;;;;;;;11.60;99.90;;;;;;5001453;28;19925;-68
2022/12/29 06:28:54;;;;;;;;;;;11.70;99.90;;;;;;4998470;28;19980;-68
2022/12/29 06:31:22;;;;;;;;;;;11.60;99.90;;;;;;4996323;28;19926;-67
2022/12/29 06:33:49;;;;;;;;;;;11.60;99.90;;;;;;4999734;28;19933;-68
2022/12/29 06:36:16;;;;;;;;;;;11.60;99.90;;;;;;4995968;28;19925;-68
2022/12/29 06:38:43;;;;;;;;;;;11.60;99.90;;;;;;4999347;28;19926;-68
2022/12/29 06:41:10;;;;;;;;;;;11.60;99.90;;;;;;5010685;28;19932;-68
2022/12/29 06:43:55;;;;;;;;;;;11.60;99.90;;;;;;5013794;28;19933;-67
2022/12/29 06:46:38;;;;;;;;;;;11.60;99.90;;;;;;5001811;28;19929;-68
2022/12/29 06:49:05;;;;;;;;;;;11.70;99.90;;;;;;4996177;28;19925;-68
2022/12/29 06:51:32;;;;;;;;;;;11.60;99.90;;;;;;5009006;28;20343;-68
2022/12/29 06:53:58;;;;;;;;;;;11.60;99.90;;;;;;5000407;28;20437;-68
2022/12/29 06:56:25;;;;;;;;;;;11.60;99.90;;;;;;4999600;28;19926;-67
2022/12/29 06:58:52;;;;;;;;;;;11.60;99.90;;;;;;4991794;28;20020;-69
2022/12/29 07:01:19;;;;;;;;;;;11.60;99.90;;;;;;4995355;28;19930;-68
2022/12/29 07:03:47;;;;;;;;;;;11.70;99.90;;;;;;4995760;28;19925;-68
2022/12/29 07:06:14;;;;;;;;;;;11.70;99.90;;;;;;4991445;28;19925;-68
2022/12/29 07:08:41;;;;;;;;;;;11.70;99.90;;;;;;4995042;28;19976;-68
2022/12/29 07:11:08;;;;;;;;;;;11.60;99.90;;;;;;4992840;28;19976;-68
2022/12/29 07:13:35;;;;;;;;;;;11.60;99.90;;;;;;4995298;28;20455;-68
2022/12/29 07:16:05;;;;;;;;;;;11.60;99.90;;;;;;4991774;28;19925;-67
2022/12/29 07:18:32;;;;;;;;;;;11.60;99.90;;;;;;4994819;28;19926;-67
2022/12/29 07:21:00;;;;;;;;;;;11.60;99.90;;;;;;4994448;28;19933;-67
2022/12/29 07:23:27;;;;;;;;;;;11.60;99.90;;;;;;4993893;28;19926;-74
2022/12/29 07:25:59;;;;;;;;;;;11.60;99.90;;;;;;4995251;28;19952;-68
2022/12/29 07:28:26;;;;;;;;;;;11.60;99.90;;;;;;4991498;28;19930;-67
2022/12/29 07:30:52;;;;;;;;;;;11.60;99.90;;;;;;5003489;28;19925;-68
2022/12/29 07:33:19;;;;;;;;;;;11.60;99.90;;;;;;5009983;28;19929;-66
2022/12/29 07:35:46;;;;;;;;;;;11.60;99.90;;;;;;4994730;28;19926;-68
2022/12/29 07:38:14;;;;;;;;;;;11.50;99.90;;;;;;4990460;28;19925;-68
2022/12/29 07:40:41;;;;;;;;;;;11.50;99.90;;;;;;4991468;28;19936;-70
2022/12/29 07:43:08;;;;;;;;;;;11.40;99.90;;;;;;4991742;28;19926;-69
2022/12/29 07:45:42;;;;;;;;;;;11.40;99.90;;;;;;4992980;28;19931;-68
2022/12/29 07:48:09;;;;;;;;;;;11.30;99.90;;;;;;4993314;28;20296;-69
2022/12/29 07:50:36;;;;;;;;;;;11.30;99.90;;;;;;4992796;28;19925;-68
2022/12/29 07:53:03;;;;;;;;;;;11.30;99.90;;;;;;4993324;28;19925;-68
2022/12/29 07:55:31;;;;;;;;;;;11.30;99.90;;;;;;4991255;28;19937;-69
2022/12/29 07:57:58;;;;;;;;;;;11.30;99.90;;;;;;4992573;28;19933;-68
2022/12/29 08:00:25;;;;;;;;;;;11.30;99.90;;;;;;4992452;28;19925;-67
2022/12/29 08:02:52;;;;;;;;;;;11.20;99.90;;;;;;4991669;28;20033;-68
2022/12/29 08:05:18;;;;;;;;;;;11.10;99.90;;;;;;4995646;28;19925;-69
2022/12/29 08:07:46;;;;;;;;;;;11.20;99.90;;;;;;4996725;28;19980;-68
2022/12/29 08:10:13;;;;;;;;;;;11.20;99.90;;;;;;4995573;28;19926;-69
2022/12/29 08:12:42;;;;;;;;;;;11.20;99.90;;;;;;4996762;28;19929;-68
2022/12/29 08:15:09;;;;;;;;;;;11.30;99.90;;;;;;4997742;28;19925;-70
2022/12/29 08:17:36;;;;;;;;;;;11.20;99.90;;;;;;4992107;28;19930;-65
2022/12/29 08:20:03;;;;;;;;;;;11.30;99.90;;;;;;4991283;28;19933;-70
2022/12/29 08:22:30;;;;;;;;;;;11.30;99.90;;;;;;5002244;28;20351;-68
2022/12/29 08:24:57;;;;;;;;;;;11.30;99.90;;;;;;4994263;28;19925;-70
2022/12/29 08:27:24;;;;;;;;;;;11.30;99.90;;;;;;4992924;28;19933;-69
2022/12/29 08:29:52;;;;;;;;;;;11.30;99.90;;;;;;4994691;28;19929;-69
2022/12/29 08:32:19;;;;;;;;;;;11.40;99.90;;;;;;4993190;28;19926;-69
2022/12/29 08:34:46;;;;;;;;;;;11.50;99.90;;;;;;4993176;28;19929;-69
2022/12/29 08:37:13;;;;;;;;;;;11.50;99.90;;;;;;4992384;28;19926;-69
2022/12/29 08:39:39;;;;;;;;;;;11.60;99.90;;;;;;4996738;28;19926;-69
2022/12/29 08:42:06;;;;;;;;;;;11.60;99.90;;;;;;4994138;28;19926;-70
2022/12/29 08:44:33;;;;;;;;;;;11.70;99.90;;;;;;4991584;28;19965;-68
2022/12/29 08:47:01;;;;;;;;;;;11.50;99.90;;;;;;4998913;28;19948;-69
2022/12/29 08:49:28;;;;;;;;;;;11.20;99.90;;;;;;4997798;28;19980;-74
2022/12/29 08:51:55;;;;;;;;;;;11.20;99.90;;;;;;5001015;28;19926;-68
2022/12/29 08:54:22;;;;;;;;;;;11.20;99.90;;;;;;4999098;28;19932;-70
2022/12/29 08:56:49;;;;;;;;;;;11.30;99.90;;;;;;5000440;28;19932;-69
2022/12/29 08:59:17;;;;;;;;;;;11.40;99.90;;;;;;4998777;28;20031;-69
2022/12/29 09:01:46;;;;;;;;;;;11.50;99.90;;;;;;5000151;28;19933;-69
2022/12/29 09:04:15;;;;;;;;;;;11.60;99.90;;;;;;5000212;28;19926;-70
2022/12/29 09:06:41;;;;;;;;;;;11.60;99.90;;;;;;4997861;28;19929;-70
2022/12/29 09:09:08;;;;;;;;;;;11.60;99.90;;;;;;4999126;28;19930;-69
2022/12/29 09:11:35;;;;;;;;;;;11.60;99.90;;;;;;4998256;28;19925;-69
2022/12/29 09:14:01;;;;;;;;;;;11.70;99.90;;;;;;4999503;28;19980;-69
2022/12/29 09:16:28;;;;;;;;;;;11.70;99.90;;;;;;4998823;28;19972;-68
2022/12/29 09:18:55;;;;;;;;;;;11.70;99.90;;;;;;4994877;28;19925;-69
2022/12/29 09:21:23;;;;;;;;;;;11.70;99.90;;;;;;5000218;28;19925;-69
2022/12/29 09:23:50;;;;;;;;;;;11.70;99.90;;;;;;4997318;28;19933;-68
2022/12/29 09:26:17;;;;;;;;;;;11.70;99.90;;;;;;4999748;28;20412;-69
2022/12/29 09:28:44;;;;;;;;;;;11.70;99.90;;;;;;5007003;28;19955;-68
2022/12/29 09:31:11;;;;;;;;;;;11.70;99.90;;;;;;5000363;28;19987;-70
2022/12/29 09:33:38;;;;;;;;;;;11.70;99.90;;;;;;5000703;28;19930;-71
2022/12/29 09:36:04;;;;;;;;;;;11.70;99.90;;;;;;5001155;28;19926;-69
2022/12/29 09:38:33;;;;;;;;;;;11.80;99.90;;;;;;5002211;28;19996;-70
2022/12/29 09:41:02;;;;;;;;;;;11.80;99.90;;;;;;5001656;28;19926;-70
2022/12/29 09:43:43;;;;;;;;;;;11.80;99.90;;;;;;5002695;28;19932;-70
2022/12/29 09:46:16;;;;;;;;;;;11.90;99.90;;;;;;4996617;28;19926;-70
2022/12/29 09:48:45;;;;;;;;;;;11.80;99.90;;;;;;4999918;28;19976;-70
2022/12/29 09:51:14;;;;;;;;;;;11.80;99.90;;;;;;4998970;28;19926;-72
2022/12/29 09:53:45;;;;;;;;;;;11.80;99.90;;;;;;4996346;28;19925;-71
2022/12/29 09:56:16;;;;;;;;;;;11.90;99.90;;;;;;4997659;28;19931;-70
2022/12/29 09:58:44;;;;;;;;;;;11.90;99.90;;;;;;4998921;28;19929;-70
2022/12/29 10:01:18;;;;;;;;;;;12.00;99.90;;;;;;4999429;28;20391;-70
2022/12/29 10:03:47;;;;;;;;;;;11.80;99.90;;;;;;4999471;28;19929;-70
2022/12/29 10:06:16;;;;;;;;;;;11.80;99.90;;;;;;4996249;28;19976;-70
2022/12/29 10:08:48;;;;;;;;;;;11.80;99.90;;;;;;4998750;28;19941;-70
2022/12/29 10:11:22;;;;;;;;;;;11.80;99.90;;;;;;5002964;28;19933;-70
2022/12/29 10:13:55;;;;;;;;;;;11.90;99.90;;;;;;5001170;28;19936;-70
2022/12/29 10:16:27;;;;;;;;;;;11.90;99.90;;;;;;5006912;28;20355;-70
2022/12/29 10:19:04;;;;;;;;;;;12.00;99.90;;;;;;5010474;28;19926;-71
2022/12/29 10:21:36;;;;;;;;;;;12.00;99.90;;;;;;5005578;28;19932;-71
2022/12/29 10:24:05;;;;;;;;;;;12.10;99.90;;;;;;5002291;28;19988;-71
2022/12/29 10:26:34;;;;;;;;;;;12.20;99.90;;;;;;4996873;28;19925;-71
2022/12/29 10:29:05;;;;;;;;;;;12.40;99.90;;;;;;5000157;28;19930;-71
2022/12/29 10:31:34;;;;;;;;;;;13.30;99.90;;;;;;5000736;28;19933;-70
2022/12/29 10:34:02;;;;;;;;;;;14.80;99.90;;;;;;5000240;28;20359;-71
2022/12/29 10:36:31;;;;;;;;;;;15.90;99.90;;;;;;5000213;28;19926;-74
2022/12/29 10:39:03;;;;;;;;;;;16.90;99.90;;;;;;4995380;28;20318;-69
2022/12/29 10:41:37;;;;;;;;;;;16.30;99.90;;;;;;4995644;28;19933;-70
2022/12/29 10:44:04;;;;;;;;;;;17.40;99.90;;;;;;4997466;28;19925;-70
2022/12/29 10:46:33;;;;;;;;;;;17.00;99.90;;;;;;4994493;28;20444;-69
2022/12/29 10:49:01;;;;;;;;;;;17.50;99.90;;;;;;4999058;28;19932;-70
2022/12/29 10:51:30;;;;;;;;;;;18.00;99.90;;;;;;4994897;28;20420;-70
2022/12/29 10:53:59;;;;;;;;;;;18.00;99.90;;;;;;5001741;28;19933;-70
2022/12/29 10:56:34;;;;;;;;;;;17.60;99.90;;;;;;4997760;28;19929;-71
2022/12/29 10:59:03;;;;;;;;;;;18.10;99.90;;;;;;4993161;28;19964;-70
2022/12/29 11:01:33;;;;;;;;;;;17.70;99.90;;;;;;4998922;28;19970;-70
2022/12/29 11:04:03;;;;;;;;;;;18.80;99.90;;;;;;4999928;28;19926;-70
2022/12/29 11:06:30;;;;;;;;;;;18.00;99.90;;;;;;5000880;28;19933;-71
2022/12/29 11:08:57;;;;;;;;;;;17.40;99.90;;;;;;4999330;28;20426;-70
2022/12/29 11:11:26;;;;;;;;;;;16.70;99.90;;;;;;5005608;28;19925;-70
2022/12/29 11:13:59;;;;;;;;;;;15.50;99.90;;;;;;5008291;28;19925;-70
2022/12/29 11:16:30;;;;;;;;;;;15.50;99.90;;;;;;4994790;28;20040;-70
2022/12/29 11:18:57;;;;;;;;;;;15.30;99.90;;;;;;4995384;28;20447;-66
2022/12/29 11:21:26;;;;;;;;;;;14.60;99.90;;;;;;4994356;28;19925;-68
2022/12/29 11:23:56;;;;;;;;;;;14.10;99.90;;;;;;4994467;28;19930;-69
2022/12/29 11:26:23;;;;;;;;;;;13.20;99.90;;;;;;4997837;28;19933;-68
2022/12/29 11:31:45;;;;;;;;;;;12.70;99.90;;;;;;5114102;27;20392;-68
2022/12/29 11:34:17;;;;;;;;;;;12.30;99.90;;;;;;5100877;28;19924;-68
2022/12/29 11:36:43;;;;;;;;;;;12.10;99.90;;;;;;5100560;28;19925;-68
2022/12/29 11:39:24;;;;;;;;;;;12.10;99.90;;;;;;5098036;28;19958;-68
2022/12/29 11:41:52;;;;;;;;;;;12.30;99.90;;;;;;5095590;28;19924;-67
2022/12/29 11:44:19;;;;;;;;;;;12.20;99.90;;;;;;5092764;28;20015;-67
2022/12/29 11:46:48;;;;;;;;;;;12.10;99.90;;;;;;5099002;28;19924;-68
2022/12/29 11:49:19;;;;;;;;;;;11.90;99.90;;;;;;5096566;28;19954;-68
2022/12/29 11:51:48;;;;;;;;;;;11.80;99.90;;;;;;5097593;28;20393;-68
2022/12/29 11:54:18;;;;;;;;;;;11.80;99.90;;;;;;5101229;28;20418;-68
2022/12/29 11:56:44;;;;;;;;;;;11.80;99.90;;;;;;5098531;28;19964;-67
2022/12/29 11:59:36;;;;;;;;;;;11.80;99.90;;;;;;5095780;28;19975;-68
2022/12/29 12:02:11;;;;;;;;;;;11.70;99.90;;;;;;5097252;28;19925;-67
2022/12/29 12:04:39;;;;;;;;;;;11.90;99.90;;;;;;5101860;28;20451;-68
2022/12/29 12:07:13;;;;;;;;;;;12.00;99.90;;;;;;5098340;28;19928;-69
2022/12/29 12:09:44;;;;;;;;;;;12.00;99.90;;;;;;5097322;28;19924;-69
2022/12/29 12:12:16;;;;;;;;;;;12.00;99.90;;;;;;5092796;28;20294;-66
2022/12/29 12:14:47;;;;;;;;;;;12.50;99.90;;;;;;5095919;28;19988;-68
2022/12/29 12:17:40;;;;;;;;;;;13.00;99.90;;;;;;5093073;28;20399;-69
2022/12/29 12:20:17;;;;;;;;;;;14.80;99.90;;;;;;5094102;28;19924;-69
2022/12/29 12:22:46;;;;;;;;;;;15.90;99.90;;;;;;5096099;28;19925;-69
2022/12/29 12:25:17;;;;;;;;;;;18.10;99.90;;;;;;5095647;28;20345;-68
2022/12/29 12:27:46;;;;;;;;;;;16.10;99.90;;;;;;5098299;28;19978;-68
2022/12/29 12:30:15;;;;;;;;;;;15.30;99.90;;;;;;5108121;28;19923;-68
2022/12/29 12:32:46;;;;;;;;;;;13.90;99.90;;;;;;5119821;28;20279;-68
2022/12/29 12:35:14;;;;;;;;;;;13.40;99.90;;;;;;5118470;28;19988;-70
2022/12/29 12:37:50;;;;;;;;;;;13.00;99.90;;;;;;5117170;28;19927;-68
2022/12/29 12:40:35;;;;;;;;;;;13.00;99.90;;;;;;5113703;28;20402;-68
2022/12/29 12:43:09;;;;;;;;;;;13.20;99.90;;;;;;5100967;28;19924;-68
2022/12/29 12:45:43;;;;;;;;;;;12.60;99.90;;;;;;5101531;28;19928;-69
2022/12/29 12:48:20;;;;;;;;;;;12.50;99.90;;;;;;5099906;28;19925;-68
2022/12/29 12:50:51;;;;;;;;;;;12.10;99.90;;;;;;5096762;28;20344;-68
2022/12/29 12:53:23;;;;;;;;;;;11.90;99.90;;;;;;5105046;28;19980;-68
2022/12/29 12:55:57;;;;;;;;;;;11.70;99.90;;;;;;5105185;28;19945;-69
2022/12/29 12:58:29;;;;;;;;;;;11.60;99.90;;;;;;5098292;28;20386;-68
2022/12/29 13:01:02;;;;;;;;;;;11.60;99.90;;;;;;5105903;28;20022;-68
2022/12/29 13:03:36;;;;;;;;;;;11.60;99.90;;;;;;5101259;28;20398;-68
2022/12/29 13:06:11;;;;;;;;;;;11.50;99.90;;;;;;5107502;28;19973;-69
2022/12/29 13:08:53;;;;;;;;;;;11.50;99.90;;;;;;5101738;28;19928;-68
2022/12/29 13:11:26;;;;;;;;;;;11.40;99.90;;;;;;5092564;28;19923;-68
2022/12/29 13:14:10;;;;;;;;;;;11.40;99.90;;;;;;5105233;28;19924;-68
2022/12/29 13:16:42;;;;;;;;;;;11.40;99.90;;;;;;5101427;28;19924;-68
2022/12/29 13:19:15;;;;;;;;;;;11.30;99.90;;;;;;5097896;28;19928;-69
2022/12/29 13:21:49;;;;;;;;;;;11.40;99.90;;;;;;5098285;28;19924;-69
2022/12/29 13:24:18;;;;;;;;;;;11.30;99.90;;;;;;5103867;28;19935;-67
2022/12/29 13:26:47;;;;;;;;;;;11.30;99.90;;;;;;5105550;28;20286;-67
2022/12/29 13:29:18;;;;;;;;;;;11.40;99.90;;;;;;5103512;28;19932;-68
2022/12/29 13:31:48;;;;;;;;;;;11.30;99.90;;;;;;5105671;28;19931;-68
2022/12/29 13:34:22;;;;;;;;;;;11.20;99.90;;;;;;5104741;28;19928;-68
2022/12/29 13:36:50;;;;;;;;;;;11.30;99.90;;;;;;5096574;28;19928;-69
2022/12/29 13:39:19;;;;;;;;;;;11.30;99.90;;;;;;5098806;28;19927;-68
2022/12/29 13:41:47;;;;;;;;;;;11.30;99.90;;;;;;5103737;28;19927;-68
2022/12/29 13:44:17;;;;;;;;;;;11.30;99.90;;;;;;5102304;28;19936;-68
2022/12/29 13:46:46;;;;;;;;;;;11.20;99.90;;;;;;5099966;28;19923;-68
2022/12/29 13:49:15;;;;;;;;;;;11.10;99.90;;;;;;5105492;28;19927;-69
2022/12/29 13:51:45;;;;;;;;;;;11.20;99.90;;;;;;5102873;28;19924;-68
2022/12/29 13:54:15;;;;;;;;;;;11.10;99.90;;;;;;5101089;28;19924;-68
2022/12/29 13:56:47;;;;;;;;;;;11.10;99.90;;;;;;5101312;28;19924;-68
2022/12/29 13:59:17;;;;;;;;;;;11.20;99.90;;;;;;5095795;28;19924;-68
2022/12/29 14:01:47;;;;;;;;;;;11.10;99.90;;;;;;5103290;28;19963;-68
2022/12/29 14:04:14;;;;;;;;;;;11.10;99.90;;;;;;5101093;28;19924;-69
2022/12/29 14:06:42;;;;;;;;;;;11.00;99.90;;;;;;5100164;28;19928;-68
2022/12/29 14:09:23;;;;;;;;;;;11.10;99.90;;;;;;5101254;28;19928;-68
2022/12/29 14:11:52;;;;;;;;;;;11.00;99.90;;;;;;5098681;28;20027;-68
2022/12/29 14:14:21;;;;;;;;;;;11.00;99.90;;;;;;5107238;28;19928;-68
2022/12/29 14:16:48;;;;;;;;;;;11.00;99.90;;;;;;5101433;28;20043;-68
2022/12/29 14:19:16;;;;;;;;;;;11.00;99.90;;;;;;5099111;28;19931;-69
2022/12/29 14:21:51;;;;;;;;;;;11.00;99.90;;;;;;5096864;28;19924;-68
2022/12/29 14:24:28;;;;;;;;;;;11.00;99.90;;;;;;5106746;28;19927;-68
2022/12/29 14:26:56;;;;;;;;;;;10.90;99.90;;;;;;5097352;28;19932;-68
2022/12/29 14:29:44;;;;;;;;;;;10.90;99.90;;;;;;5099908;28;19928;-68
2022/12/29 14:32:29;;;;;;;;;;;10.80;99.90;;;;;;5091612;28;19924;-68
2022/12/29 14:34:57;;;;;;;;;;;10.80;99.90;;;;;;5095478;28;19963;-67
2022/12/29 14:37:25;;;;;;;;;;;10.80;99.90;;;;;;5102811;28;19948;-68
2022/12/29 14:40:02;;;;;;;;;;;10.80;99.90;;;;;;5101714;28;19923;-68
2022/12/29 14:42:30;;;;;;;;;;;10.80;99.90;;;;;;5104091;28;19928;-68
2022/12/29 14:45:00;;;;;;;;;;;10.70;99.90;;;;;;5102434;28;20341;-68
2022/12/29 14:47:29;;;;;;;;;;;10.70;99.90;;;;;;5105883;28;20014;-68
2022/12/29 14:49:56;;;;;;;;;;;10.70;99.90;;;;;;5101527;28;20032;-68
2022/12/29 14:52:24;;;;;;;;;;;10.70;99.90;;;;;;5101942;28;20337;-70
2022/12/29 14:54:52;;;;;;;;;;;10.70;99.90;;;;;;5103073;28;19925;-68
2022/12/29 14:57:37;;;;;;;;;;;10.70;99.90;;;;;;5101009;28;19927;-68
2022/12/29 15:00:15;;;;;;;;;;;10.70;99.90;;;;;;5098520;28;20015;-66
2022/12/29 15:02:45;;;;;;;;;;;10.60;99.90;;;;;;5102294;28;19927;-68
2022/12/29 15:05:24;;;;;;;;;;;10.60;99.90;;;;;;5097092;28;19931;-68
2022/12/29 15:07:51;;;;;;;;;;;10.60;99.90;;;;;;5097043;28;19927;-68
2022/12/29 15:10:19;;;;;;;;;;;10.60;99.90;;;;;;5099244;28;19924;-68
2022/12/29 15:12:48;;;;;;;;;;;10.50;99.90;;;;;;5093630;28;19924;-68
2022/12/29 15:15:21;;;;;;;;;;;10.50;99.90;;;;;;5096801;28;20278;-68
2022/12/29 15:17:48;;;;;;;;;;;10.50;99.90;;;;;;5099608;28;20344;-69
2022/12/29 15:20:17;;;;;;;;;;;10.50;99.90;;;;;;5096599;28;19931;-68
2022/12/29 15:22:45;;;;;;;;;;;10.50;99.90;;;;;;5095683;28;20398;-68
2022/12/29 15:25:15;;;;;;;;;;;10.50;99.90;;;;;;5100624;28;19924;-68
2022/12/29 15:27:42;;;;;;;;;;;10.50;99.90;;;;;;5098763;28;19974;-68
2022/12/29 15:30:13;;;;;;;;;;;10.50;99.90;;;;;;5098284;28;19927;-69
2022/12/29 15:32:43;;;;;;;;;;;10.40;99.90;;;;;;5094043;28;19932;-68
2022/12/29 15:35:23;;;;;;;;;;;10.30;99.90;;;;;;5097313;28;20346;-68
2022/12/29 15:37:50;;;;;;;;;;;10.20;99.90;;;;;;5097742;28;19950;-68
2022/12/29 15:40:23;;;;;;;;;;;10.20;99.90;;;;;;5097407;28;19924;-68
2022/12/29 15:42:55;;;;;;;;;;;10.10;99.90;;;;;;5097424;28;19949;-68
2022/12/29 15:45:26;;;;;;;;;;;10.00;99.90;;;;;;5090444;28;19928;-68
2022/12/29 15:47:56;;;;;;;;;;;9.90;99.90;;;;;;5090973;28;20351;-67
2022/12/29 15:50:25;;;;;;;;;;;9.80;99.90;;;;;;5097452;28;20031;-68
2022/12/29 15:52:52;;;;;;;;;;;9.80;99.90;;;;;;5100464;28;19927;-68
2022/12/29 15:55:21;;;;;;;;;;;9.70;99.90;;;;;;5098391;28;19937;-68
2022/12/29 15:57:47;;;;;;;;;;;9.70;99.90;;;;;;5100342;28;19932;-68
2022/12/29 16:00:25;;;;;;;;;;;9.70;99.90;;;;;;5096594;28;19928;-69
2022/12/29 16:02:52;;;;;;;;;;;9.70;99.90;;;;;;5099496;28;20023;-68
2022/12/29 16:05:21;;;;;;;;;;;9.70;99.90;;;;;;5097866;28;20356;-68
2022/12/29 16:07:55;;;;;;;;;;;9.70;99.90;;;;;;5107977;28;19931;-68
2022/12/29 16:10:25;;;;;;;;;;;9.70;99.90;;;;;;5097814;28;19931;-68
2022/12/29 16:12:52;;;;;;;;;;;9.70;99.90;;;;;;5097110;28;19931;-68
2022/12/29 16:15:19;;;;;;;;;;;9.60;99.90;;;;;;5101547;28;20164;-68
2022/12/29 16:17:48;;;;;;;;;;;9.50;99.90;;;;;;5102930;28;19931;-68
2022/12/29 16:20:17;;;;;;;;;;;9.40;99.90;;;;;;5102095;28;19940;-67
2022/12/29 16:22:49;;;;;;;;;;;9.40;99.90;;;;;;5102807;28;20395;-68
2022/12/29 16:25:18;;;;;;;;;;;9.40;99.90;;;;;;5100967;28;19924;-68
2022/12/29 16:27:45;;;;;;;;;;;9.40;99.90;;;;;;5096706;28;19928;-67
2022/12/29 16:30:18;;;;;;;;;;;9.40;99.90;;;;;;5102506;28;19924;-68
2022/12/29 16:32:46;;;;;;;;;;;9.50;99.90;;;;;;5097394;28;20398;-68
2022/12/29 16:35:17;;;;;;;;;;;9.40;99.90;;;;;;5103260;28;19924;-68
2022/12/29 16:37:44;;;;;;;;;;;9.40;99.90;;;;;;5103125;28;19924;-68
2022/12/29 16:40:31;;;;;;;;;;;9.30;99.90;;;;;;5102220;28;19932;-69
2022/12/29 16:43:01;;;;;;;;;;;9.30;99.90;;;;;;5100235;28;20368;-68
2022/12/29 16:45:46;;;;;;;;;;;9.30;99.90;;;;;;5099710;28;19924;-68
2022/12/29 16:48:19;;;;;;;;;;;9.20;99.90;;;;;;5103262;28;19928;-68
2022/12/29 16:50:46;;;;;;;;;;;9.30;99.90;;;;;;5100629;28;19924;-69
2022/12/29 16:53:19;;;;;;;;;;;9.30;99.90;;;;;;5098011;28;19928;-68
2022/12/29 16:55:47;;;;;;;;;;;9.30;99.90;;;;;;5098631;28;19928;-69
2022/12/29 16:58:17;;;;;;;;;;;9.40;99.90;;;;;;5100085;28;19981;-68
2022/12/29 17:00:45;;;;;;;;;;;9.40;99.90;;;;;;5100054;28;19931;-69
2022/12/29 17:03:12;;;;;;;;;;;9.40;99.90;;;;;;5100791;28;19927;-69
2022/12/29 17:05:39;;;;;;;;;;;9.40;99.90;;;;;;5101603;28;19977;-68
2022/12/29 17:08:16;;;;;;;;;;;9.40;99.90;;;;;;5100126;28;19924;-70
2022/12/29 17:13:25;;;;;;;;;;;9.30;99.90;;;;;;5051851;28;20394;-68
2022/12/29 17:15:51;;;;;;;;;;;9.30;99.90;;;;;;5101112;28;19928;-70
2022/12/29 17:18:18;;;;;;;;;;;9.20;99.90;;;;;;5100922;28;19928;-69
2022/12/29 17:20:45;;;;;;;;;;;9.20;99.90;;;;;;5102061;28;19978;-69
2022/12/29 17:23:14;;;;;;;;;;;9.20;99.90;;;;;;5096861;28;20386;-69
2022/12/29 17:25:41;;;;;;;;;;;9.20;99.90;;;;;;5102930;28;19977;-68
2022/12/29 17:28:13;;;;;;;;;;;9.20;99.90;;;;;;5096849;28;19948;-68
2022/12/29 17:30:42;;;;;;;;;;;9.20;99.90;;;;;;5098033;28;19967;-68
2022/12/29 17:33:12;;;;;;;;;;;9.20;99.90;;;;;;5100578;28;19973;-68
2022/12/29 17:35:41;;;;;;;;;;;9.20;99.90;;;;;;5100705;28;19931;-69
2022/12/29 17:38:16;;;;;;;;;;;9.20;99.90;;;;;;5104259;28;19924;-69
2022/12/29 17:40:42;;;;;;;;;;;9.30;99.90;;;;;;5102770;28;19924;-68
2022/12/29 17:43:11;;;;;;;;;;;9.30;99.90;;;;;;5098370;28;19924;-69
2022/12/29 17:45:39;;;;;;;;;;;9.40;99.90;;;;;;5098516;28;19924;-68
2022/12/29 17:48:11;;;;;;;;;;;9.30;99.90;;;;;;5102863;28;19923;-68
2022/12/29 17:50:38;;;;;;;;;;;9.10;99.90;;;;;;5096067;28;19931;-67
2022/12/29 17:53:06;;;;;;;;;;;8.60;99.90;;;;;;5101801;28;19928;-68
2022/12/29 17:55:33;;;;;;;;;;;8.40;99.90;;;;;;5101762;28;19931;-69
2022/12/29 17:58:00;;;;;;;;;;;8.30;99.90;;;;;;5097455;28;19924;-68
2022/12/29 18:00:27;;;;;;;;;;;8.20;99.90;;;;;;5097970;28;20268;-69
2022/12/29 18:02:54;;;;;;;;;;;8.10;99.90;;;;;;5102982;28;20430;-68
2022/12/29 18:05:24;;;;;;;;;;;8.10;99.90;;;;;;5102727;28;19935;-68
2022/12/29 18:07:51;;;;;;;;;;;8.10;99.90;;;;;;5102258;28;19923;-68
2022/12/29 18:10:18;;;;;;;;;;;8.00;99.90;;;;;;5095872;28;19924;-68
2022/12/29 18:12:46;;;;;;;;;;;8.10;99.90;;;;;;5100305;28;19924;-68
2022/12/29 18:15:18;;;;;;;;;;;8.10;99.90;;;;;;5099144;28;19924;-68
2022/12/29 18:17:44;;;;;;;;;;;8.10;99.90;;;;;;5094315;28;20015;-68
2022/12/29 18:20:11;;;;;;;;;;;8.10;99.90;;;;;;5101715;28;19932;-70
2022/12/29 18:22:39;;;;;;;;;;;8.10;99.90;;;;;;5100456;28;19939;-69
2022/12/29 18:25:17;;;;;;;;;;;8.10;99.90;;;;;;5100843;28;19957;-69
2022/12/29 18:27:46;;;;;;;;;;;8.00;99.90;;;;;;5100110;28;20402;-70
2022/12/29 18:30:13;;;;;;;;;;;8.00;99.90;;;;;;5100044;28;20305;-69
2022/12/29 18:32:40;;;;;;;;;;;8.00;99.90;;;;;;5098531;28;19932;-67
2022/12/29 18:35:10;;;;;;;;;;;8.10;99.90;;;;;;5096839;28;19932;-70
2022/12/29 18:37:37;;;;;;;;;;;8.10;99.90;;;;;;5098729;28;19924;-68
2022/12/29 18:40:06;;;;;;;;;;;8.20;99.90;;;;;;5095618;28;19924;-67